Latest Weather Observations for Pirlangimpi

IDD60901

Issued at 11:51 am CST Thursday 3 September 2015 (issued every 10 minutes, with the page automatically refreshed every 10 minutes)

About weather observations | Map of Darwin area stations | Latest observations for Darwin area | Other Formats
Station Details ID: 014142 Name: PIRLANGIMPI AIRPORT Lat: -11.40 Lon: 130.42 Height: 18.3 m
Data from the previous 72 hours. | See also: Recent months at Pirlangimpi
Date/Time
CST
Tmp

°C
App
Tmp
°C
Dew
Point
°C
Rel
Hum
%
Delta-T

°C
Wind Press
QNH
hPa
Press
MSL
hPa
Rain
since
9 am
mm
Dir
 
Spd
km/h
Gust
km/h
Spd
kts
Gust
kts
03/11:30am 31.5 32.0 15.0 36 10.1 W 6 9 3 5 1016.6 1016.5 0.0
03/11:00am 31.4 32.3 16.2 40 9.5 W 6 11 3 6 1017.0 1016.9 0.0
03/10:30am 30.4 32.0 19.1 50 7.3 SW 9 15 5 8 1017.3 1017.2 0.0
03/10:00am 29.7 32.3 20.0 56 6.4 SW 6 7 3 4 1017.4 1017.3 0.0
03/09:30am 29.1 32.8 20.8 61 5.5 NE 2 4 1 2 1017.4 1017.3 0.0
03/09:00am 27.6 31.5 23.0 76 3.1 ENE 7 13 4 7 1017.3 1017.2 -
03/08:30am 25.0 28.8 22.7 87 1.5 NE 7 11 4 6 1017.0 1016.9 -
03/08:00am 22.9 26.1 21.7 93 0.8 NE 7 9 4 5 1016.7 1016.6 -
03/07:30am 21.6 24.6 20.8 95 0.5 NE 6 11 3 6 1016.3 1016.2 -
03/07:00am 20.9 23.5 20.1 95 0.5 NE 6 6 3 3 1015.8 1015.7 -
03/06:30am 20.3 23.1 18.8 91 0.9 NE 2 4 1 2 1015.4 1015.3 -
03/06:00am 20.7 24.2 19.5 93 0.8 CALM 0 0 0 0 1014.7 1014.6 -
03/05:30am 20.5 23.8 19.0 91 0.9 CALM 0 0 0 0 1014.5 1014.4 -
03/05:00am 20.6 24.0 19.3 92 0.8 CALM 0 0 0 0 1014.3 1014.2 -
03/04:30am 21.0 24.5 19.5 91 1.0 CALM 0 0 0 0 1014.3 1014.2 0.0
03/04:00am 21.2 24.8 19.7 91 1.0 CALM 0 0 0 0 1014.3 1014.2 0.0
03/03:30am 21.4 25.1 19.9 91 1.0 CALM 0 - 0 - - 1014.2 -
03/03:00am 21.4 25.0 19.7 90 1.1 CALM 0 - 0 - - 1014.2 0.0
03/02:30am 21.9 25.7 20.2 90 1.1 CALM 0 - 0 - - 1014.4 -
03/01:30am 22.0 25.8 20.1 89 1.2 CALM 0 0 0 0 1014.8 1014.7 0.0
03/01:00am 22.2 26.0 20.1 88 1.4 CALM 0 0 0 0 1015.0 1014.9 0.0
03/12:30am 22.5 25.7 20.6 89 1.2 NE 4 - 2 - - 1015.2 -
03/12:00am 22.6 26.2 20.5 88 1.4 ENE 2 - 1 - - 1015.2 -
 
Date/Time
CST
Tmp

°C
App
Tmp
°C
Dew
Point
°C
Rel
Hum
%
Delta-T

°C
Wind Press
QNH
hPa
Press
MSL
hPa
Rain
since
9 am
mm
Dir
 
Spd
km/h
Gust
km/h
Spd
kts
Gust
kts
02/11:30pm 22.9 26.8 20.4 86 1.6 CALM 0 - 0 - - 1015.3 -
02/11:00pm 23.3 27.3 20.6 85 1.8 CALM 0 0 0 0 1015.4 1015.3 0.0
02/10:30pm 23.7 27.7 20.6 83 2.0 CALM 0 0 0 0 1015.2 1015.1 0.0
02/10:00pm 24.3 28.3 20.6 80 2.4 CALM 0 0 0 0 1015.0 1014.9 0.0
02/09:30pm 24.9 28.9 20.6 77 2.8 CALM 0 0 0 0 1014.8 1014.7 0.0
02/09:00pm 25.1 28.8 20.8 77 2.8 WSW 2 6 1 3 1014.5 1014.4 0.0
02/08:30pm 25.6 29.6 20.6 74 3.3 CALM 0 0 0 0 1014.2 1014.1 0.0
02/08:00pm 26.1 30.0 20.4 71 3.7 CALM 0 4 0 2 1013.7 1013.6 0.0
02/07:30pm 26.5 29.5 20.1 68 4.2 WNW 4 7 2 4 1013.3 1013.2 0.0
02/07:00pm 27.0 29.9 19.9 65 4.6 W 4 9 2 5 1012.9 1012.8 0.0
02/06:30pm 27.7 30.2 19.8 62 5.2 W 6 11 3 6 1012.6 1012.5 0.0
02/06:00pm 28.3 30.8 19.8 60 5.6 WNW 6 11 3 6 1012.5 1012.4 0.0
02/05:30pm 28.6 31.3 20.3 60 5.5 WSW 6 11 3 6 1012.5 1012.4 0.0
02/05:00pm 29.2 31.3 20.1 58 6.0 WSW 9 15 5 8 1012.2 1012.1 0.0
02/04:30pm 30.6 33.6 20.8 56 6.5 WNW 6 13 3 7 1012.0 1011.9 0.0
02/04:00pm 31.0 33.7 20.6 54 6.9 NW 7 15 4 8 1012.0 1011.9 0.0
02/03:30pm 32.7 35.1 21.5 51 7.6 NW 11 19 6 10 1012.1 1012.0 0.0
02/03:00pm 33.0 35.0 21.5 50 7.8 NNW 13 24 7 13 1012.2 1012.1 0.0
02/02:30pm 33.2 35.5 21.4 50 8.0 NW 11 20 6 11 1012.7 1012.6 0.0
02/02:00pm 33.3 34.9 20.8 48 8.4 NW 13 22 7 12 1013.2 1013.1 0.0
02/01:30pm 33.4 35.0 18.3 40 9.8 WSW 7 15 4 8 1013.8 1013.7 0.0
02/01:00pm 33.0 33.6 17.6 40 9.9 SSW 11 17 6 9 1014.3 1014.2 0.0
02/12:30pm 32.5 32.9 17.2 40 9.7 SSW 11 17 6 9 1014.9 1014.8 0.0
02/12:00pm 32.3 32.7 18.1 42 9.2 SSW 13 19 7 10 1015.7 1015.6 0.0
02/11:30am 30.8 31.8 19.5 51 7.4 SSW 13 19 7 10 1016.1 1016.0 0.0
02/11:00am 29.6 30.8 19.9 56 6.4 SSW 13 19 7 10 1016.5 1016.4 0.0
02/10:30am 29.6 31.3 20.2 57 6.2 SW 11 17 6 9 1016.8 1016.7 0.0
02/10:00am 28.7 31.1 21.5 65 4.8 SSW 11 17 6 9 1016.8 1016.7 0.0
02/09:30am 27.9 30.2 21.4 67 4.3 S 11 17 6 9 1016.7 1016.6 0.0
02/09:00am 26.9 30.5 22.3 76 3.1 S 7 11 4 6 1016.6 1016.5 0.0
02/08:30am 25.2 29.8 23.1 88 1.4 S 4 6 2 3 1016.3 1016.2 0.0
02/08:00am 24.1 29.3 22.9 93 0.8 CALM 0 0 0 0 1016.0 1015.9 0.0
02/07:30am 22.3 26.4 21.5 95 0.5 SE 2 4 1 2 1015.7 1015.6 0.0
02/07:00am 21.4 25.2 20.2 93 0.8 CALM 0 0 0 0 1015.2 1015.1 0.0
02/06:30am 21.4 25.3 20.4 94 0.6 CALM 0 2 0 1 1014.7 1014.6 0.0
02/06:00am 21.3 25.0 19.9 92 0.9 CALM 0 0 0 0 1014.2 1014.1 0.0
02/05:30am 21.3 24.9 19.8 91 1.0 CALM 0 0 0 0 1014.0 1013.9 0.0
02/05:00am 21.7 25.7 20.5 93 0.8 CALM 0 0 0 0 1013.8 1013.7 0.0
02/04:30am 21.6 25.4 20.1 91 1.0 CALM 0 0 0 0 1013.6 1013.5 0.0
02/04:00am 21.7 25.5 20.2 91 1.0 CALM 0 0 0 0 1013.8 1013.7 0.0
02/03:30am 21.8 25.6 20.1 90 1.1 CALM 0 0 0 0 1013.7 1013.6 0.0
02/03:00am 22.0 25.9 20.3 90 1.1 CALM 0 0 0 0 1013.7 1013.6 0.0
02/02:30am 22.0 25.6 20.5 91 1.0 ENE 2 2 1 1 1013.8 1013.7 0.0
02/02:00am 22.2 25.9 20.7 91 1.0 ENE 2 2 1 1 1013.9 1013.8 0.0
02/01:30am 22.4 26.2 20.9 91 1.0 NE 2 2 1 1 1014.2 1014.1 0.0
02/01:00am 22.6 26.5 21.1 91 1.0 NE 2 4 1 2 1014.5 1014.4 0.0
02/12:30am 22.8 26.3 21.1 90 1.1 NE 4 4 2 2 1014.6 1014.5 0.0
02/12:00am 23.2 26.7 21.1 88 1.4 NE 4 6 2 3 1014.7 1014.6 0.0
 
Date/Time
CST
Tmp

°C
App
Tmp
°C
Dew
Point
°C
Rel
Hum
%
Delta-T

°C
Wind Press
QNH
hPa
Press
MSL
hPa
Rain
since
9 am
mm
Dir
 
Spd
km/h
Gust
km/h
Spd
kts
Gust
kts
01/11:30pm 23.6 28.0 21.3 87 1.5 CALM 0 0 0 0 1014.7 1014.6 0.0
01/11:00pm 24.1 28.5 21.4 85 1.8 CALM 0 2 0 1 1014.7 1014.6 0.0
01/10:30pm 24.4 28.5 21.5 84 1.9 WSW 2 2 1 1 1014.6 1014.5 0.0
01/10:00pm 24.7 28.8 21.6 83 2.1 WSW 2 4 1 2 1014.3 1014.2 0.0
01/09:30pm 25.0 28.7 21.5 81 2.3 SW 4 6 2 3 1014.1 1014.0 0.0
01/09:00pm 25.4 29.8 21.3 78 2.7 CALM 0 4 0 2 1013.9 1013.8 0.0
01/08:30pm 25.9 29.9 21.3 76 3.0 WSW 2 4 1 2 1013.5 1013.4 0.0
01/08:00pm 26.4 30.0 21.2 73 3.4 WSW 4 7 2 4 1013.3 1013.2 0.0
01/07:30pm 26.8 29.9 21.1 71 3.8 W 6 9 3 5 1012.8 1012.7 0.0
01/07:00pm 27.3 30.1 20.4 66 4.5 NW 6 9 3 5 1012.5 1012.4 0.0
01/06:30pm 28.1 30.6 19.9 61 5.4 NW 6 11 3 6 1012.2 1012.1 0.0
01/06:00pm 28.9 31.3 20.1 59 5.8 NW 7 13 4 7 1012.0 1011.9 0.0
01/05:30pm 30.5 33.2 20.7 55 6.5 NW 7 13 4 7 1011.8 1011.7 0.0
01/05:00pm 31.0 33.7 20.6 54 6.9 NW 7 15 4 8 1011.5 1011.4 0.0
01/04:30pm 31.9 34.4 20.2 50 7.8 NW 7 17 4 9 1011.4 1011.3 0.0
01/04:00pm 32.1 33.7 20.0 48 8.0 NW 11 22 6 12 1011.5 1011.4 0.0
01/03:30pm 33.1 34.9 20.3 47 8.5 NW 11 22 6 12 1011.7 1011.6 0.0
01/03:00pm 33.1 34.4 19.2 43 9.1 NW 11 19 6 10 1012.0 1011.9 0.0
01/02:30pm 33.2 34.2 17.8 40 9.9 WNW 9 17 5 9 1012.4 1012.3 0.0
01/02:00pm 33.4 35.7 19.8 44 9.0 NW 7 15 4 8 1012.8 1012.7 0.0
01/01:30pm 33.4 35.3 19.8 44 9.0 NW 9 17 5 9 1013.3 1013.2 0.0
01/01:00pm 33.1 34.9 19.6 45 8.9 NW 9 17 5 9 1013.7 1013.6 0.0
01/12:30pm 32.0 33.4 18.6 45 8.7 NW 9 20 5 11 1014.2 1014.1 0.0
01/12:00pm 32.1 33.5 17.9 42 9.1 NW 7 13 4 7 1014.6 1014.5 0.0
01/11:30am 31.0 32.7 18.4 47 8.1 W 7 13 4 7 1014.9 1014.8 0.0
01/11:00am 30.2 31.7 18.0 48 7.8 W 7 15 4 8 1015.5 1015.4 0.0
01/10:30am 29.2 31.0 18.3 51 7.0 SW 6 9 3 5 1015.7 1015.6 0.0
01/10:00am 29.1 31.3 19.7 57 6.1 SSW 7 11 4 6 1015.8 1015.7 0.0
01/09:30am 27.7 30.9 21.3 68 4.3 S 6 11 3 6 1015.7 1015.6 0.0
01/09:00am 26.4 30.4 22.0 77 2.9 SSE 4 6 2 3 1015.8 1015.7 0.0
01/08:30am 24.6 29.4 22.8 90 1.2 S 2 4 1 2 1015.6 1015.5 0.0
01/08:00am 23.2 28.0 22.2 94 0.7 CALM 0 0 0 0 1015.2 1015.1 0.0
01/07:30am 21.2 24.7 20.4 95 0.5 ENE 2 2 1 1 1014.8 1014.7 0.0
01/07:00am 20.6 23.7 19.6 94 0.6 ENE 2 2 1 1 1014.3 1014.2 0.0
01/06:30am 20.6 23.3 19.4 93 0.8 ENE 4 4 2 2 1014.1 1014.0 0.0
01/06:00am 20.6 23.2 19.3 92 0.8 NE 4 6 2 3 1013.9 1013.8 0.0
01/05:30am 20.7 23.4 19.5 93 0.8 NE 4 6 2 3 1013.6 1013.5 0.0
01/05:00am 20.8 23.6 19.6 93 0.8 NE 4 4 2 2 1013.4 1013.3 0.0
01/04:30am 20.7 23.4 19.4 92 0.8 NE 4 4 2 2 1013.3 1013.2 0.0
01/04:00am 20.9 24.1 19.7 93 0.8 ENE 2 4 1 2 1013.3 1013.2 0.0
01/03:30am 21.0 24.2 19.7 92 0.8 ENE 2 4 1 2 1013.5 1013.4 0.0
01/03:00am 21.3 24.2 19.9 92 0.9 NE 4 4 2 2 1013.5 1013.4 0.0
01/02:30am 21.6 25.5 20.4 93 0.8 CALM 0 0 0 0 1013.5 1013.4 0.0
01/02:00am 21.9 25.9 20.5 92 0.9 CALM 0 0 0 0 1013.7 1013.6 0.0
01/01:30am 22.1 26.1 20.6 91 1.0 CALM 0 0 0 0 1013.9 1013.8 0.0
01/01:00am 22.2 26.1 20.3 89 1.2 CALM 0 0 0 0 1014.1 1014.0 0.0
01/12:30am 22.4 26.4 20.5 89 1.2 CALM 0 0 0 0 1014.5 1014.4 0.0
01/12:00am 22.6 26.7 20.7 89 1.2 CALM 0 0 0 0 1014.6 1014.5 0.0
 
Date/Time
CST
Tmp

°C
App
Tmp
°C
Dew
Point
°C
Rel
Hum
%
Delta-T

°C
Wind Press
QNH
hPa
Press
MSL
hPa
Rain
since
9 am
mm
Dir
 
Spd
km/h
Gust
km/h
Spd
kts
Gust
kts
31/11:30pm 22.9 26.6 20.8 88 1.4 ENE 2 2 1 1 1014.6 1014.5 0.0
31/11:00pm 23.4 27.3 21.1 87 1.5 ENE 2 4 1 2 1014.5 1014.4 0.0
31/10:30pm 23.7 28.0 21.2 86 1.6 CALM 0 0 0 0 1014.4 1014.3 0.0
31/10:00pm 24.4 28.9 21.5 84 1.9 CALM 0 2 0 1 1014.3 1014.2 0.0
31/09:30pm 24.9 29.0 21.6 82 2.2 W 2 6 1 3 1014.2 1014.1 0.0
31/09:00pm 25.1 29.0 21.8 82 2.2 W 4 6 2 3 1014.0 1013.9 0.0
31/08:30pm 25.3 29.1 21.6 80 2.5 W 4 9 2 5 1013.7 1013.6 0.0
31/08:00pm 25.6 29.4 21.7 79 2.6 WSW 4 6 2 3 1013.5 1013.4 0.0
31/07:30pm 26.1 30.3 21.7 77 2.9 WNW 2 6 1 3 1013.2 1013.1 0.0
31/07:00pm 26.6 30.4 21.6 74 3.3 WNW 4 6 2 3 1013.1 1013.0 0.0
31/06:30pm 27.2 30.8 21.2 69 4.0 NNW 4 9 2 5 1012.9 1012.8 0.0
31/06:00pm 27.9 31.1 21.2 67 4.5 NW 6 11 3 6 1012.7 1012.6 0.0
31/05:30pm 28.1 31.1 20.9 65 4.8 N 6 9 3 5 1012.7 1012.6 0.0
31/05:00pm 27.9 30.8 21.0 66 4.6 NNW 7 15 4 8 1012.6 1012.5 0.0
31/04:30pm 28.5 30.6 21.0 64 5.0 NNW 11 17 6 9 1012.5 1012.4 0.0
31/04:00pm 29.5 32.0 21.7 63 5.2 NW 11 19 6 10 1012.7 1012.6 0.0
31/03:30pm 28.9 31.2 21.4 64 5.0 NW 11 20 6 11 1013.0 1012.9 0.0
31/03:00pm 31.0 32.9 22.0 58 6.1 NW 15 24 8 13 1013.0 1012.9 0.0
31/02:30pm 30.6 32.3 21.7 59 6.0 NW 15 24 8 13 1013.2 1013.1 0.0
31/02:00pm 31.4 32.9 21.3 55 6.8 NW 15 24 8 13 1013.4 1013.3 0.0
31/01:30pm 32.4 35.1 22.2 55 7.0 NW 11 20 6 11 1013.7 1013.6 0.0
31/01:00pm 31.4 33.4 21.6 56 6.6 NW 13 20 7 11 1014.1 1014.0 0.0
31/12:30pm 31.1 33.5 21.6 57 6.4 NW 11 17 6 9 1014.5 1014.4 0.0
31/12:00pm 30.7 33.9 21.2 57 6.4 NW 6 9 3 5 1014.9 1014.8 0.0

Latest Capital City Observations: Canberra | Sydney | Melbourne | Brisbane | Adelaide | Perth | Hobart | Darwin

Other Formats:

Comma delimited format used in spreadsheet applications
http://www.bom.gov.au/fwo/IDD60901/IDD60901.94119.axf

JavaScript Object Notation format (JSON) in row-major order
http://www.bom.gov.au/fwo/IDD60901/IDD60901.94119.json